createdAt,value
2018-02-06T00:00:59.241Z,3.10
2018-02-06T00:03:26.809Z,3.10
2018-02-06T00:05:54.332Z,3.10
2018-02-06T00:08:21.847Z,3.10
2018-02-06T00:10:49.396Z,3.10
2018-02-06T00:13:16.911Z,3.10
2018-02-06T00:15:44.452Z,3.10
2018-02-06T00:18:12.721Z,3.00
2018-02-06T00:20:41.001Z,3.00
2018-02-06T00:23:10.155Z,3.00
2018-02-06T00:25:37.671Z,3.00
2018-02-06T00:28:05.201Z,3.00
2018-02-06T00:30:32.787Z,3.00
2018-02-06T00:33:00.316Z,3.00
2018-02-06T00:35:27.845Z,3.00
2018-02-06T00:37:55.360Z,3.00
2018-02-06T00:40:22.872Z,3.00
2018-02-06T00:42:50.416Z,3.00
2018-02-06T00:45:17.994Z,2.90
2018-02-06T00:47:45.505Z,2.90
2018-02-06T00:50:13.045Z,2.90
2018-02-06T00:52:40.632Z,2.80
2018-02-06T00:55:08.895Z,2.80
2018-02-06T00:57:36.447Z,2.80
2018-02-06T01:00:03.990Z,2.80
2018-02-06T01:02:32.281Z,2.80
2018-02-06T01:04:59.811Z,2.80
2018-02-06T01:07:28.124Z,2.80
2018-02-06T01:09:55.638Z,2.80
2018-02-06T01:12:23.161Z,2.80
2018-02-06T01:14:50.671Z,2.80
2018-02-06T01:17:18.208Z,2.80
2018-02-06T01:19:45.728Z,2.80
2018-02-06T01:22:13.228Z,2.80
2018-02-06T01:24:40.759Z,2.80
2018-02-06T01:27:08.281Z,2.70
2018-02-06T01:29:35.803Z,2.70
2018-02-06T01:32:04.091Z,2.70
2018-02-06T01:34:32.367Z,2.70
2018-02-06T01:37:00.651Z,2.70
2018-02-06T01:39:28.187Z,2.70
2018-02-06T01:41:55.704Z,2.70
2018-02-06T01:44:23.216Z,2.60
2018-02-06T01:46:51.502Z,2.60
2018-02-06T01:49:19.049Z,2.60
2018-02-06T01:51:47.339Z,2.60
2018-02-06T01:54:14.841Z,2.60
2018-02-06T01:56:42.356Z,2.60
2018-02-06T01:59:09.868Z,2.60
2018-02-06T02:01:37.491Z,2.60
2018-02-06T02:04:04.988Z,2.50
2018-02-06T02:06:32.488Z,2.50
2018-02-06T02:09:00.044Z,2.50
2018-02-06T02:11:27.576Z,2.50
2018-02-06T02:13:55.851Z,2.50
2018-02-06T02:16:24.111Z,2.50
2018-02-06T02:18:51.639Z,2.50
2018-02-06T02:21:19.144Z,2.50
2018-02-06T02:23:47.416Z,2.50
2018-02-06T02:26:15.716Z,2.40
2018-02-06T02:28:43.212Z,2.40
2018-02-06T02:31:10.731Z,2.40
2018-02-06T02:33:38.245Z,2.40
2018-02-06T02:36:05.827Z,2.40
2018-02-06T02:38:34.123Z,2.40
2018-02-06T02:41:01.637Z,2.30
2018-02-06T04:39:11.529Z,1.60
2018-02-06T04:41:39.814Z,1.50
2018-02-06T04:44:08.111Z,1.50
2018-02-06T04:46:35.619Z,1.40
2018-02-06T04:49:03.148Z,1.40
2018-02-06T04:51:30.670Z,1.40
2018-02-06T04:53:58.962Z,1.40
2018-02-06T04:56:26.467Z,1.40
2018-02-06T04:58:54.005Z,1.40
2018-02-06T05:01:21.492Z,1.50
2018-02-06T05:03:49.011Z,1.50
2018-02-06T05:06:16.580Z,1.40
2018-02-06T05:08:44.099Z,1.50
2018-02-06T05:11:11.591Z,1.60
2018-02-06T05:13:39.103Z,1.60
2018-02-06T05:16:07.387Z,1.50
2018-02-06T05:18:34.888Z,1.40
2018-02-06T05:21:02.426Z,1.50
2018-02-06T05:23:29.931Z,1.60
2018-02-06T05:25:58.232Z,1.70
2018-02-06T05:28:25.722Z,1.70
2018-02-06T05:30:53.244Z,1.80
2018-02-06T05:33:21.530Z,1.90
2018-02-06T05:35:49.021Z,1.90
2018-02-06T05:38:16.559Z,1.90
2018-02-06T05:40:44.075Z,2.00
2018-02-06T05:43:12.343Z,2.00
2018-02-06T05:45:39.869Z,2.00
2018-02-06T05:48:07.409Z,2.00
2018-02-06T05:50:35.001Z,2.10
2018-02-06T05:53:02.507Z,2.00
2018-02-06T05:55:30.026Z,2.10
2018-02-06T05:57:57.523Z,2.20
2018-02-06T06:00:25.040Z,2.20
2018-02-06T06:02:52.603Z,2.30
2018-02-06T06:05:20.147Z,2.30
2018-02-06T06:07:47.683Z,2.40
2018-02-06T06:10:15.174Z,2.40
2018-02-06T06:12:42.700Z,2.40
2018-02-06T06:15:10.203Z,2.40
2018-02-06T06:17:38.496Z,2.40
2018-02-06T06:20:05.991Z,2.30
2018-02-06T06:22:33.552Z,2.40
2018-02-06T06:25:01.039Z,2.40
2018-02-06T06:27:28.552Z,2.40
2018-02-06T06:29:56.088Z,2.30
2018-02-06T06:32:23.600Z,2.30
2018-02-06T06:34:51.130Z,2.40
2018-02-06T06:37:18.664Z,2.40
2018-02-06T06:39:46.194Z,2.40
2018-02-06T06:42:14.506Z,2.40
2018-02-06T06:44:42.054Z,2.40
2018-02-06T06:47:09.568Z,2.40
2018-02-06T06:49:37.080Z,2.40
2018-02-06T06:52:04.618Z,2.40
2018-02-06T06:54:32.896Z,2.30
2018-02-06T06:57:00.423Z,2.30
2018-02-06T06:59:27.945Z,2.20
2018-02-06T07:01:55.469Z,2.20
2018-02-06T07:04:22.969Z,2.30
2018-02-06T07:06:50.523Z,2.30
2018-02-06T07:09:18.042Z,2.20
2018-02-06T07:11:45.555Z,2.20
2018-02-06T07:14:13.064Z,2.20
2018-02-06T07:16:40.580Z,2.30
2018-02-06T07:19:08.080Z,2.30
2018-02-06T07:21:35.605Z,2.40
2018-02-06T07:24:03.116Z,2.30
2018-02-06T07:26:30.655Z,2.30
2018-02-06T07:28:58.197Z,2.30
2018-02-06T07:31:26.459Z,2.30
2018-02-06T07:33:54.755Z,2.30
2018-02-06T07:36:22.248Z,2.30
2018-02-06T07:38:49.773Z,2.30
2018-02-06T07:41:17.272Z,2.30
2018-02-06T07:43:44.810Z,2.40
2018-02-06T07:46:12.331Z,2.40
2018-02-06T07:48:40.594Z,2.30
2018-02-06T07:51:08.889Z,2.40
2018-02-06T07:53:37.192Z,2.40
2018-02-06T07:56:04.740Z,2.40
2018-02-06T07:58:32.246Z,2.40
2018-02-06T08:00:59.772Z,2.50
2018-02-06T08:03:27.273Z,2.60
2018-02-06T08:05:54.771Z,2.60
2018-02-06T08:08:22.307Z,2.70
2018-02-06T08:10:49.811Z,2.60
2018-02-06T08:13:17.327Z,2.50
2018-02-06T08:15:44.836Z,2.50
2018-02-06T08:18:12.356Z,2.50
2018-02-06T08:20:39.866Z,2.60
2018-02-06T08:23:07.400Z,2.60
2018-02-06T08:25:34.912Z,2.50
2018-02-06T08:28:02.411Z,2.40
2018-02-06T08:30:29.940Z,2.30
2018-02-06T08:32:57.477Z,2.30
2018-02-06T08:35:25.740Z,2.20
2018-02-06T08:37:54.003Z,2.10
2018-02-06T08:40:21.531Z,2.00
2018-02-06T08:42:49.028Z,2.00
2018-02-06T08:45:16.586Z,2.10
2018-02-06T08:47:44.091Z,2.20
2018-02-06T08:50:11.596Z,2.40
2018-02-06T08:52:39.131Z,2.50
2018-02-06T08:55:06.660Z,2.60
2018-02-06T08:57:34.191Z,2.70
2018-02-06T09:00:01.715Z,2.80
2018-02-06T09:02:29.274Z,2.90
2018-02-06T09:04:56.766Z,2.90
2018-02-06T09:07:24.326Z,3.00
2018-02-06T09:09:51.832Z,3.10
2018-02-06T09:12:19.349Z,3.30
2018-02-06T09:14:46.871Z,3.40
2018-02-06T09:17:14.371Z,3.40
2018-02-06T09:19:41.891Z,3.50
2018-02-06T09:22:09.393Z,3.50
2018-02-06T09:24:36.920Z,3.60
2018-02-06T09:27:05.182Z,3.70
2018-02-06T09:29:32.717Z,3.70
2018-02-06T09:32:00.219Z,3.70
2018-02-06T09:34:27.714Z,3.70
2018-02-06T09:36:55.239Z,3.70
2018-02-06T09:39:22.732Z,3.70
2018-02-06T09:41:50.259Z,3.60
2018-02-06T09:44:17.792Z,3.60
2018-02-06T09:46:46.060Z,3.80
2018-02-06T09:49:13.584Z,3.70
2018-02-06T09:51:41.094Z,3.80
2018-02-06T09:54:08.647Z,3.80
2018-02-06T09:56:36.919Z,4.00
2018-02-06T09:59:05.202Z,4.00
2018-02-06T10:01:33.514Z,4.10
2018-02-06T10:04:01.017Z,4.10
2018-02-06T10:06:29.319Z,4.20
2018-02-06T10:08:56.863Z,4.10
2018-02-06T10:11:25.148Z,4.20
2018-02-06T10:13:52.648Z,4.20
2018-02-06T10:16:20.193Z,4.20
2018-02-06T10:18:47.737Z,4.30
2018-02-06T10:21:15.287Z,4.30
2018-02-06T10:23:43.554Z,4.20
2018-02-06T10:26:11.074Z,4.20
2018-02-06T10:28:38.619Z,4.30
2018-02-06T10:31:06.120Z,4.30
2018-02-06T10:33:34.428Z,4.20
2018-02-06T10:36:01.927Z,4.20
2018-02-06T10:38:29.470Z,4.40
2018-02-06T10:40:57.014Z,4.50
2018-02-06T10:43:24.510Z,4.60
2018-02-06T10:45:52.098Z,4.70
2018-02-06T10:48:19.598Z,4.80
2018-02-06T10:50:47.156Z,4.90
2018-02-06T10:53:14.674Z,4.80
2018-02-06T10:55:42.203Z,4.90
2018-02-06T10:58:09.707Z,5.00
2018-02-06T11:00:37.234Z,5.10
2018-02-06T11:03:05.506Z,5.60
2018-02-06T11:05:33.810Z,5.70
2018-02-06T11:08:01.369Z,5.70
2018-02-06T11:10:28.866Z,5.90
2018-02-06T11:12:56.398Z,6.10
2018-02-06T11:15:23.891Z,6.20
2018-02-06T11:17:51.379Z,6.40
2018-02-06T11:20:18.904Z,6.60
2018-02-06T11:22:46.431Z,6.80
2018-02-06T11:25:13.958Z,6.90
2018-02-06T11:27:41.474Z,7.00
2018-02-06T11:30:09.005Z,7.00
2018-02-06T11:32:36.494Z,7.10
2018-02-06T11:35:04.032Z,7.10
2018-02-06T11:37:31.578Z,7.30
2018-02-06T11:39:59.076Z,7.50
2018-02-06T11:42:27.380Z,7.90
2018-02-06T11:44:54.911Z,7.90
2018-02-06T11:47:22.424Z,8.00
2018-02-06T11:49:49.962Z,8.10
2018-02-06T11:52:17.464Z,8.20
2018-02-06T11:54:45.015Z,8.10
2018-02-06T11:57:12.520Z,7.90
2018-02-06T11:59:40.024Z,8.00
2018-02-06T12:02:07.567Z,8.00
2018-02-06T12:04:35.084Z,7.90
2018-02-06T12:07:03.396Z,7.80
2018-02-06T12:09:30.898Z,7.90
2018-02-06T12:11:58.444Z,7.90
2018-02-06T12:14:25.965Z,7.90
2018-02-06T12:16:53.463Z,8.00
2018-02-06T12:19:20.980Z,8.00
2018-02-06T12:21:48.494Z,8.20
2018-02-06T12:24:16.031Z,8.40
2018-02-06T12:26:43.528Z,8.60
2018-02-06T12:29:11.057Z,8.70
2018-02-06T12:31:38.570Z,8.70
2018-02-06T12:34:06.938Z,9.00
2018-02-06T12:36:34.484Z,9.10
2018-02-06T12:39:02.035Z,9.10
2018-02-06T12:41:29.620Z,9.10
2018-02-06T12:43:57.128Z,9.00
2018-02-06T12:46:24.653Z,9.00
2018-02-06T12:48:52.154Z,9.10
2018-02-06T12:51:20.447Z,9.80
2018-02-06T12:53:47.966Z,9.80
2018-02-06T12:56:15.455Z,9.80
2018-02-06T12:58:42.995Z,9.50
2018-02-06T13:01:10.496Z,9.60
2018-02-06T13:03:38.183Z,9.40
2018-02-06T13:06:05.691Z,9.00
2018-02-06T13:08:33.247Z,8.60
2018-02-06T13:11:00.763Z,8.50
2018-02-06T13:13:28.298Z,8.40
2018-02-06T13:15:55.823Z,8.50
2018-02-06T13:18:23.321Z,8.70
2018-02-06T13:20:50.840Z,9.10
2018-02-06T13:23:18.357Z,9.50
2018-02-06T13:25:45.904Z,10.20
2018-02-06T13:28:13.402Z,11.10
2018-02-06T13:30:41.731Z,13.10
2018-02-06T13:33:09.280Z,13.00
2018-02-06T13:35:36.799Z,13.70
2018-02-06T13:38:05.072Z,14.70
2018-02-06T13:40:33.362Z,14.90
2018-02-06T13:43:00.876Z,14.90
2018-02-06T13:45:28.408Z,15.10
2018-02-06T13:47:55.931Z,15.40
2018-02-06T13:50:23.499Z,15.80
2018-02-06T13:52:51.011Z,16.60
2018-02-06T13:55:18.582Z,17.10
2018-02-06T13:57:52.047Z,17.40
2018-02-06T14:00:19.590Z,17.60
2018-02-06T14:02:47.124Z,17.70
2018-02-06T14:05:14.641Z,17.70
2018-02-06T14:07:42.165Z,17.80
2018-02-06T14:10:09.669Z,18.00
2018-02-06T14:12:37.232Z,18.10
2018-02-06T14:15:05.503Z,18.30
2018-02-06T14:17:33.287Z,18.20
2018-02-06T14:20:00.874Z,18.20
2018-02-06T14:22:28.376Z,18.10
2018-02-06T14:24:55.905Z,17.80
2018-02-06T14:27:23.406Z,17.40
2018-02-06T14:29:51.678Z,15.90
2018-02-06T14:32:20.020Z,15.20
2018-02-06T14:34:47.520Z,15.20
2018-02-06T14:37:16.012Z,14.10
2018-02-06T14:39:43.507Z,14.10
2018-02-06T14:42:11.131Z,13.70
2018-02-06T14:44:39.419Z,12.80
2018-02-06T14:47:06.964Z,12.70
2018-02-06T14:49:34.476Z,12.30
2018-02-06T14:52:01.985Z,12.00
2018-02-06T14:54:29.511Z,11.80
2018-02-06T14:56:57.017Z,11.50
2018-02-06T14:59:24.557Z,11.30
2018-02-06T15:01:52.087Z,11.00
2018-02-06T15:04:19.787Z,10.80
2018-02-06T15:06:47.319Z,10.50
2018-02-06T15:09:15.694Z,10.20
2018-02-06T15:11:44.040Z,10.00
2018-02-06T15:14:11.543Z,10.00
2018-02-06T15:16:39.075Z,9.90
2018-02-06T15:19:07.395Z,9.60
2018-02-06T15:21:34.946Z,9.60
2018-02-06T15:24:02.452Z,9.50
2018-02-06T15:26:29.960Z,9.40
2018-02-06T15:28:57.507Z,9.30
2018-02-06T15:31:25.025Z,9.20
2018-02-06T15:33:52.555Z,9.10
2018-02-06T15:36:20.048Z,8.90
2018-02-06T15:38:48.359Z,8.70
2018-02-06T15:41:15.882Z,8.60
2018-02-06T15:43:44.181Z,8.50
2018-02-06T15:46:12.473Z,8.40
2018-02-06T15:48:40.641Z,8.40
2018-02-06T15:51:08.173Z,8.30
2018-02-06T15:53:36.710Z,8.10
2018-02-06T15:56:04.261Z,8.10
2018-02-06T15:58:31.768Z,8.10
2018-02-06T16:01:00.986Z,7.90
2018-02-06T16:03:28.515Z,7.90
2018-02-06T16:05:56.016Z,7.90
2018-02-06T16:08:23.576Z,7.80
2018-02-06T16:10:51.108Z,7.70
2018-02-06T16:13:19.376Z,7.50
2018-02-06T16:15:47.711Z,7.50
2018-02-06T16:18:15.216Z,7.50
2018-02-06T16:20:43.552Z,7.30
2018-02-06T16:23:11.064Z,7.30
2018-02-06T16:25:38.633Z,7.20
2018-02-06T16:28:06.136Z,7.20
2018-02-06T16:30:33.689Z,7.10
2018-02-06T16:33:01.203Z,7.00
2018-02-06T16:35:28.732Z,7.00
2018-02-06T16:37:57.042Z,6.80
2018-02-06T16:40:24.556Z,6.70
2018-02-06T16:42:52.099Z,6.70
2018-02-06T16:45:19.800Z,6.70
2018-02-06T16:47:47.444Z,6.60
2018-02-06T16:50:14.913Z,6.50
2018-02-06T16:52:43.217Z,6.30
2018-02-06T16:55:10.739Z,6.30
2018-02-06T16:57:39.026Z,6.20
2018-02-06T17:00:06.547Z,6.20
2018-02-06T17:02:43.649Z,6.20
2018-02-06T17:05:12.022Z,6.10
2018-02-06T17:07:39.517Z,6.10
2018-02-06T17:10:07.065Z,6.10
2018-02-06T17:12:34.609Z,6.10
2018-02-06T17:15:02.911Z,6.00
2018-02-06T17:17:30.470Z,6.00
2018-02-06T17:19:57.979Z,6.00
2018-02-06T17:22:25.536Z,5.90
2018-02-06T17:24:53.060Z,5.80
2018-02-06T17:27:20.564Z,5.80
2018-02-06T17:29:48.880Z,5.70
2018-02-06T17:32:16.392Z,5.70
2018-02-06T17:34:43.915Z,5.60
2018-02-06T17:37:11.448Z,5.50
2018-02-06T17:39:38.972Z,5.40
2018-02-06T17:42:07.291Z,5.20
2018-02-06T17:44:34.807Z,5.20
2018-02-06T17:47:03.108Z,5.10
2018-02-06T17:49:30.641Z,5.00
2018-02-06T17:51:58.992Z,4.90
2018-02-06T17:54:26.516Z,4.90
2018-02-06T17:56:54.026Z,4.80
2018-02-06T17:59:22.350Z,4.70
2018-02-06T18:01:49.874Z,4.70
2018-02-06T18:04:18.184Z,4.60
2018-02-06T18:06:45.698Z,4.60
2018-02-06T18:09:13.261Z,4.60
2018-02-06T18:11:41.537Z,4.60
2018-02-06T18:14:09.828Z,4.60
2018-02-06T18:16:38.149Z,4.60
2018-02-06T18:19:05.663Z,4.50
2018-02-06T18:21:33.215Z,4.70
2018-02-06T18:24:01.571Z,4.70
2018-02-06T18:26:29.183Z,4.80
2018-02-06T18:28:56.672Z,4.80
2018-02-06T18:31:24.279Z,4.70
2018-02-06T18:33:51.764Z,4.60
2018-02-06T18:36:19.297Z,4.50
2018-02-06T18:38:46.836Z,4.40
2018-02-06T18:41:15.129Z,4.40
2018-02-06T18:43:42.712Z,4.30
2018-02-06T18:46:10.229Z,4.30
2018-02-06T18:48:38.530Z,4.30
2018-02-06T18:51:06.087Z,4.30
2018-02-06T18:53:33.621Z,4.30
2018-02-06T18:56:02.625Z,4.20
2018-02-06T18:58:30.186Z,4.20
2018-02-06T19:00:57.743Z,4.00
2018-02-06T19:03:25.271Z,4.00
2018-02-06T19:05:52.829Z,3.90
2018-02-06T19:08:20.357Z,3.90
2018-02-06T19:10:48.198Z,3.90
2018-02-06T19:13:15.745Z,3.80
2018-02-06T19:15:43.292Z,3.70
2018-02-06T19:18:11.668Z,3.70
2018-02-06T19:20:39.949Z,3.70
2018-02-06T19:23:07.479Z,3.70
2018-02-06T19:25:34.999Z,3.70
2018-02-06T19:28:02.531Z,3.70
2018-02-06T19:30:30.068Z,3.80
2018-02-06T19:32:58.486Z,3.70
2018-02-06T19:35:26.041Z,3.70
2018-02-06T19:37:53.593Z,3.70
2018-02-06T19:40:21.137Z,3.60
2018-02-06T19:42:48.706Z,3.60
2018-02-06T19:45:16.236Z,3.60
2018-02-06T19:47:44.587Z,3.50
2018-02-06T19:50:12.121Z,3.50
2018-02-06T19:52:39.677Z,3.50
2018-02-06T19:55:07.186Z,3.50
2018-02-06T19:57:35.497Z,3.50
2018-02-06T20:00:03.054Z,3.50
2018-02-06T20:02:30.610Z,3.50
2018-02-06T20:04:58.160Z,3.60
2018-02-06T20:07:25.815Z,3.50
2018-02-06T20:09:53.372Z,3.50
2018-02-06T20:12:21.017Z,3.50
2018-02-06T20:14:49.361Z,3.40
2018-02-06T20:17:16.870Z,3.40
2018-02-06T20:19:44.449Z,3.40
2018-02-06T20:22:11.988Z,3.40
2018-02-06T20:24:39.520Z,3.40
2018-02-06T20:27:07.046Z,3.40
2018-02-06T20:29:34.589Z,3.40
2018-02-06T20:32:02.153Z,3.30
2018-02-06T20:34:29.676Z,3.30
2018-02-06T20:36:57.250Z,3.30
2018-02-06T20:39:24.764Z,3.30
2018-02-06T20:41:53.061Z,3.20
2018-02-06T20:44:20.612Z,3.20
2018-02-06T20:46:48.899Z,3.20
2018-02-06T20:49:16.438Z,3.10
2018-02-06T20:51:44.730Z,3.10
2018-02-06T20:54:13.067Z,3.10
2018-02-06T20:56:40.627Z,3.00
2018-02-06T20:59:08.130Z,3.10
2018-02-06T21:01:35.670Z,3.10
2018-02-06T21:04:03.962Z,3.00
2018-02-06T21:06:31.551Z,3.00
2018-02-06T21:08:59.101Z,3.00
2018-02-06T21:11:26.725Z,2.90
2018-02-06T21:13:54.994Z,2.90
2018-02-06T21:16:22.545Z,2.90
2018-02-06T21:18:50.098Z,2.80
2018-02-06T21:21:17.629Z,2.80
2018-02-06T21:23:45.407Z,2.80
2018-02-06T21:26:12.944Z,2.80
2018-02-06T21:28:40.488Z,2.80
2018-02-06T21:31:08.004Z,2.80
2018-02-06T21:33:36.340Z,2.80
2018-02-06T21:36:03.869Z,2.70
2018-02-06T21:38:31.400Z,2.70
2018-02-06T21:40:59.710Z,2.70
2018-02-06T21:43:27.253Z,2.70
2018-02-06T21:45:54.793Z,2.70
2018-02-06T21:48:23.074Z,2.60
2018-02-06T21:50:51.427Z,2.60
2018-02-06T21:53:18.972Z,2.60
2018-02-06T21:55:46.476Z,2.50
2018-02-06T21:58:14.016Z,2.50
2018-02-06T22:00:42.286Z,2.50
2018-02-06T22:03:10.612Z,2.50
2018-02-06T22:05:38.175Z,2.50
2018-02-06T22:08:05.710Z,2.50
2018-02-06T22:10:33.231Z,2.50
2018-02-06T22:13:00.765Z,2.50
2018-02-06T22:15:28.286Z,2.40
2018-02-06T22:17:55.801Z,2.40
2018-02-06T22:20:23.350Z,2.40
2018-02-06T22:22:50.901Z,2.40
2018-02-06T22:25:18.448Z,2.40
2018-02-06T22:27:45.993Z,2.40
2018-02-06T22:30:13.535Z,2.30
2018-02-06T22:32:41.079Z,2.30
2018-02-06T22:35:09.381Z,2.30
2018-02-06T22:37:36.927Z,2.30
2018-02-06T22:40:04.438Z,2.30
2018-02-06T22:42:32.744Z,2.20
2018-02-06T22:45:01.027Z,2.20
2018-02-06T22:47:28.587Z,2.20
2018-02-06T22:49:56.105Z,2.20
2018-02-06T22:52:23.604Z,2.10
2018-02-06T22:54:51.129Z,2.10
2018-02-06T22:57:18.722Z,2.10
2018-02-06T22:59:46.315Z,2.20
2018-02-06T23:02:13.829Z,2.20
2018-02-06T23:04:42.133Z,2.10
2018-02-06T23:07:09.730Z,2.10
2018-02-06T23:09:37.285Z,2.00
2018-02-06T23:12:04.784Z,2.10
2018-02-06T23:14:32.286Z,2.00
2018-02-06T23:16:59.832Z,2.00
2018-02-06T23:19:27.459Z,2.00
2018-02-06T23:21:54.974Z,2.00
2018-02-06T23:24:22.516Z,1.90
2018-02-06T23:26:50.065Z,1.90
2018-02-06T23:29:17.596Z,1.90
2018-02-06T23:31:45.164Z,1.90
2018-02-06T23:34:12.728Z,1.90
2018-02-06T23:36:40.248Z,1.90
2018-02-06T23:39:08.548Z,2.00
2018-02-06T23:41:36.111Z,1.90
2018-02-06T23:44:03.620Z,1.90
2018-02-06T23:46:31.200Z,1.90
2018-02-06T23:48:59.603Z,1.90
2018-02-06T23:51:27.108Z,1.90
2018-02-06T23:53:54.678Z,1.90
2018-02-06T23:56:22.192Z,1.80
2018-02-06T23:58:49.723Z,1.80
